Time;durP1;ratioP1;P1;durP2;ratioP2;P2;SDS_P1;SDS_P2;PMS_P1;PMS_P2;Temp;Humidity;BMP_temperature;BMP_pressure;BME280_temperature;BME280_humidity;BME280_pressure;Samples;Min_cycle;Max_cycle;Signal;HPM_P1;HPM_P2
2023/01/02 00:00:18;;;;;;;1.08;0.63;;;;;;;;;;4188378;28;20045;-42
2023/01/02 00:02:19;;;;;;;1.63;0.73;;;;;;;;;;4195586;28;20063;-41
2023/01/02 00:04:20;;;;;;;1.00;0.57;;;;;;;;;;4187758;28;20048;-41
2023/01/02 00:06:22;;;;;;;0.60;0.28;;;;;;;;;;4182131;28;20412;-43
2023/01/02 00:08:23;;;;;;;0.80;0.50;;;;;;;;;;4191867;28;20048;-40
2023/01/02 00:10:24;;;;;;;0.40;0.40;;;;;;;;;;4198115;28;20079;-41
2023/01/02 00:12:25;;;;;;;0.63;0.40;;;;;;;;;;4181964;28;20052;-41
2023/01/02 00:14:27;;;;;;;0.70;0.57;;;;;;;;;;4182356;28;20099;-40
2023/01/02 00:16:28;;;;;;;0.50;0.45;;;;;;;;;;4182303;28;20083;-40
2023/01/02 00:18:29;;;;;;;0.52;0.50;;;;;;;;;;4164405;28;20061;-41
2023/01/02 00:20:30;;;;;;;0.60;0.52;;;;;;;;;;4162239;28;20517;-41
2023/01/02 00:22:32;;;;;;;2.35;0.68;;;;;;;;;;4182308;28;20095;-43
2023/01/02 00:24:34;;;;;;;0.70;0.50;;;;;;;;;;4181408;28;20099;-44
2023/01/02 00:26:35;;;;;;;1.17;0.50;;;;;;;;;;4182003;28;20424;-43
2023/01/02 00:28:37;;;;;;;1.15;0.77;;;;;;;;;;4181682;28;20049;-41
2023/01/02 00:30:38;;;;;;;1.08;0.60;;;;;;;;;;4181654;28;20076;-39
2023/01/02 00:32:39;;;;;;;0.57;0.45;;;;;;;;;;4182004;28;20519;-41
2023/01/02 00:34:40;;;;;;;0.85;0.55;;;;;;;;;;4181835;28;20103;-41
2023/01/02 00:36:42;;;;;;;0.70;0.60;;;;;;;;;;4181820;28;20049;-41
2023/01/02 00:38:43;;;;;;;0.93;0.50;;;;;;;;;;4181703;28;20079;-41
2023/01/02 00:40:44;;;;;;;0.98;0.60;;;;;;;;;;4162541;28;20058;-43
2023/01/02 00:42:45;;;;;;;0.40;0.40;;;;;;;;;;4164050;28;20107;-43
2023/01/02 00:44:47;;;;;;;1.10;0.60;;;;;;;;;;4177300;28;20049;-41
2023/01/02 00:46:48;;;;;;;0.50;0.50;;;;;;;;;;4181301;28;20061;-40
2023/01/02 00:48:50;;;;;;;0.47;0.40;;;;;;;;;;4181753;28;20466;-43
2023/01/02 00:50:51;;;;;;;1.33;0.68;;;;;;;;;;4181785;28;20057;-41
2023/01/02 00:52:52;;;;;;;1.77;0.55;;;;;;;;;;4181431;28;20582;-41
2023/01/02 00:54:53;;;;;;;0.47;0.40;;;;;;;;;;4181036;28;20057;-41
2023/01/02 00:56:55;;;;;;;0.90;0.47;;;;;;;;;;4178082;28;20103;-41
2023/01/02 00:58:56;;;;;;;0.90;0.52;;;;;;;;;;4171615;28;20057;-43
2023/01/02 01:00:57;;;;;;;0.88;0.70;;;;;;;;;;4181213;28;20052;-41
2023/01/02 01:02:59;;;;;;;0.98;0.60;;;;;;;;;;4181407;28;20063;-42
2023/01/02 01:05:00;;;;;;;0.65;0.50;;;;;;;;;;4162967;28;20049;-43
2023/01/02 01:07:01;;;;;;;1.38;0.70;;;;;;;;;;4181316;28;20049;-43
2023/01/02 01:09:03;;;;;;;2.25;0.60;;;;;;;;;;4163122;28;20053;-43
2023/01/02 01:11:06;;;;;;;0.93;0.52;;;;;;;;;;4181217;28;20106;-40
2023/01/02 01:13:07;;;;;;;0.30;0.30;;;;;;;;;;4161752;28;20054;-43
2023/01/02 01:15:09;;;;;;;0.60;0.50;;;;;;;;;;4169953;28;20162;-40
2023/01/02 01:17:10;;;;;;;0.80;0.60;;;;;;;;;;4181167;28;20188;-41
2023/01/02 01:19:12;;;;;;;0.80;0.50;;;;;;;;;;4170082;28;20474;-43
2023/01/02 01:21:18;;;;;;;0.60;0.40;;;;;;;;;;4165129;28;20053;-42
2023/01/02 01:23:22;;;;;;;0.95;0.70;;;;;;;;;;4176198;28;20053;-43
2023/01/02 01:25:23;;;;;;;0.70;0.70;;;;;;;;;;4172248;28;20060;-41
2023/01/02 01:27:24;;;;;;;0.75;0.50;;;;;;;;;;4181075;28;20362;-40
2023/01/02 01:29:26;;;;;;;1.30;0.80;;;;;;;;;;4180530;28;20052;-44
2023/01/02 01:31:27;;;;;;;1.15;0.80;;;;;;;;;;4181150;28;20393;-42
2023/01/02 01:33:29;;;;;;;0.52;0.50;;;;;;;;;;4181227;28;20048;-42
2023/01/02 01:35:32;;;;;;;0.70;0.57;;;;;;;;;;4170897;28;20053;-42
2023/01/02 01:37:34;;;;;;;0.88;0.65;;;;;;;;;;4164616;28;20053;-40
2023/01/02 01:39:35;;;;;;;1.08;0.65;;;;;;;;;;4180485;28;20057;-41
2023/01/02 01:41:36;;;;;;;0.63;0.43;;;;;;;;;;4181125;28;20048;-42
2023/01/02 01:43:43;;;;;;;0.65;0.52;;;;;;;;;;4180809;28;20451;-41
2023/01/02 01:45:45;;;;;;;0.50;0.50;;;;;;;;;;4167395;28;20448;-44
2023/01/02 01:47:49;;;;;;;0.88;0.40;;;;;;;;;;4160128;28;20125;-41
2023/01/02 01:49:55;;;;;;;0.90;0.70;;;;;;;;;;4164175;28;20520;-43
2023/01/02 01:52:06;;;;;;;0.70;0.52;;;;;;;;;;4164149;28;20080;-41
2023/01/02 01:54:09;;;;;;;1.08;0.73;;;;;;;;;;4159134;28;20127;-40
2023/01/02 01:56:11;;;;;;;0.93;0.70;;;;;;;;;;4164319;28;20053;-41
2023/01/02 01:58:16;;;;;;;1.23;0.68;;;;;;;;;;4172207;28;20048;-42
2023/01/02 02:00:19;;;;;;;1.48;0.90;;;;;;;;;;4169154;28;20053;-42
2023/01/02 02:02:21;;;;;;;0.82;0.50;;;;;;;;;;4177274;28;20104;-40
2023/01/02 02:04:23;;;;;;;0.90;0.60;;;;;;;;;;4138761;28;20077;-43
2023/01/02 02:06:24;;;;;;;0.60;0.50;;;;;;;;;;4154322;28;20096;-41
2023/01/02 02:09:04;;;;;;;1.50;0.60;;;;;;;;;;4169488;28;20057;-41
2023/01/02 02:11:06;;;;;;;1.98;0.50;;;;;;;;;;4170098;28;20067;-43
2023/01/02 02:13:08;;;;;;;0.75;0.68;;;;;;;;;;4197186;28;20052;-41
2023/01/02 02:15:14;;;;;;;0.82;0.68;;;;;;;;;;4166864;28;20076;-41
2023/01/02 02:17:26;;;;;;;0.90;0.60;;;;;;;;;;4180152;28;20056;-44
2023/01/02 02:19:48;;;;;;;1.05;0.75;;;;;;;;;;4187133;28;20106;-41
2023/01/02 02:22:08;;;;;;;0.50;0.50;;;;;;;;;;4196759;28;20056;-43
2023/01/02 02:24:30;;;;;;;0.77;0.50;;;;;;;;;;4185215;28;20052;-41
2023/01/02 02:26:59;;;;;;;0.63;0.52;;;;;;;;;;4185389;28;20049;-41
2023/01/02 02:29:27;;;;;;;0.82;0.73;;;;;;;;;;4184677;28;20126;-43
2023/01/02 02:31:35;;;;;;;0.88;0.60;;;;;;;;;;4194022;28;20114;-41
2023/01/02 02:33:38;;;;;;;0.93;0.55;;;;;;;;;;4180786;28;20421;-41
2023/01/02 02:36:03;;;;;;;1.23;0.70;;;;;;;;;;4180141;28;20049;-41
2023/01/02 02:38:10;;;;;;;1.23;0.60;;;;;;;;;;4162445;28;20076;-43
2023/01/02 02:40:17;;;;;;;0.70;0.50;;;;;;;;;;4181180;28;20099;-43
2023/01/02 02:42:46;;;;;;;1.02;0.70;;;;;;;;;;4190628;28;20060;-41
2023/01/02 02:44:56;;;;;;;0.57;0.43;;;;;;;;;;4192815;28;20052;-41
2023/01/02 02:47:14;;;;;;;0.63;0.60;;;;;;;;;;4179882;28;20049;-42
2023/01/02 02:49:32;;;;;;;1.17;0.80;;;;;;;;;;4170766;28;20462;-43
2023/01/02 02:51:45;;;;;;;0.85;0.50;;;;;;;;;;4193924;28;20052;-43
2023/01/02 02:53:52;;;;;;;1.02;0.70;;;;;;;;;;4178542;28;20052;-43
2023/01/02 02:55:56;;;;;;;0.80;0.60;;;;;;;;;;4193432;28;20106;-40
2023/01/02 02:57:59;;;;;;;1.50;0.65;;;;;;;;;;4209697;28;20113;-41
2023/01/02 03:00:03;;;;;;;0.90;0.70;;;;;;;;;;4194749;28;20095;-40
2023/01/02 03:02:05;;;;;;;1.05;0.60;;;;;;;;;;4188459;28;20057;-41
2023/01/02 03:04:16;;;;;;;0.52;0.45;;;;;;;;;;4204812;28;20487;-41
2023/01/02 03:06:17;;;;;;;0.55;0.55;;;;;;;;;;4194072;28;20471;-41
2023/01/02 03:08:33;;;;;;;1.10;0.60;;;;;;;;;;4195835;28;20102;-41
2023/01/02 03:10:43;;;;;;;1.02;0.50;;;;;;;;;;4169966;28;20057;-41
2023/01/02 03:13:03;;;;;;;1.17;0.40;;;;;;;;;;4196092;28;20057;-40
2023/01/02 03:15:52;;;;;;;1.08;0.60;;;;;;;;;;4201454;28;20376;-40
2023/01/02 03:18:03;;;;;;;0.52;0.52;;;;;;;;;;4130993;28;20054;-43
2023/01/02 03:20:08;;;;;;;0.57;0.50;;;;;;;;;;4194932;28;20060;-41
2023/01/02 03:22:19;;;;;;;0.68;0.40;;;;;;;;;;4194858;28;20056;-44
2023/01/02 03:24:21;;;;;;;0.77;0.50;;;;;;;;;;4193994;28;20553;-40
2023/01/02 03:26:26;;;;;;;1.13;0.57;;;;;;;;;;4165458;28;20452;-41
2023/01/02 03:28:27;;;;;;;1.02;0.50;;;;;;;;;;4194885;28;20516;-41
2023/01/02 03:30:31;;;;;;;0.77;0.60;;;;;;;;;;4212559;28;20052;-41
2023/01/02 03:32:37;;;;;;;0.68;0.68;;;;;;;;;;4194097;28;20059;-41
2023/01/02 03:34:39;;;;;;;0.70;0.50;;;;;;;;;;4182419;28;20056;-43
2023/01/02 03:36:43;;;;;;;0.65;0.50;;;;;;;;;;4195059;28;20045;-43
2023/01/02 03:38:53;;;;;;;0.68;0.60;;;;;;;;;;4194730;28;20052;-41
2023/01/02 03:41:10;;;;;;;0.73;0.60;;;;;;;;;;4192448;28;20048;-42
2023/01/02 03:43:16;;;;;;;0.73;0.65;;;;;;;;;;4185143;28;20087;-41
2023/01/02 03:45:29;;;;;;;0.93;0.55;;;;;;;;;;4188750;28;20492;-43
2023/01/02 03:47:42;;;;;;;0.63;0.55;;;;;;;;;;4198698;28;20098;-39
2023/01/02 03:49:48;;;;;;;1.15;0.70;;;;;;;;;;4194523;28;20508;-43
2023/01/02 03:51:49;;;;;;;0.73;0.68;;;;;;;;;;4194623;28;20554;-41
2023/01/02 03:53:51;;;;;;;0.95;0.60;;;;;;;;;;4212264;28;20051;-38
2023/01/02 03:56:06;;;;;;;0.70;0.60;;;;;;;;;;4195464;28;20048;-42
2023/01/02 03:58:17;;;;;;;1.33;0.77;;;;;;;;;;4169885;28;20566;-44
2023/01/02 04:00:19;;;;;;;0.80;0.50;;;;;;;;;;4194357;28;20060;-40
2023/01/02 04:02:45;;;;;;;1.08;0.70;;;;;;;;;;4198558;28;20053;-43
2023/01/02 04:04:51;;;;;;;0.60;0.55;;;;;;;;;;4173079;28;20512;-42
2023/01/02 04:06:57;;;;;;;0.45;0.43;;;;;;;;;;4178180;28;20048;-41
2023/01/02 04:09:08;;;;;;;0.70;0.55;;;;;;;;;;4194957;28;20052;-40
2023/01/02 04:11:12;;;;;;;0.82;0.65;;;;;;;;;;4168142;28;20099;-40
2023/01/02 04:13:17;;;;;;;0.75;0.50;;;;;;;;;;4194539;28;20053;-43
2023/01/02 04:15:21;;;;;;;0.70;0.60;;;;;;;;;;4163551;28;20068;-41
2023/01/02 04:17:23;;;;;;;0.80;0.50;;;;;;;;;;4181003;28;20056;-40
2023/01/02 04:19:31;;;;;;;1.02;0.60;;;;;;;;;;4164715;28;20084;-43
2023/01/02 04:21:33;;;;;;;0.90;0.60;;;;;;;;;;4193874;28;20049;-41
2023/01/02 04:23:38;;;;;;;1.15;0.70;;;;;;;;;;4166910;28;20049;-41
2023/01/02 04:25:54;;;;;;;0.65;0.60;;;;;;;;;;4198345;28;20052;-41
2023/01/02 04:27:58;;;;;;;0.55;0.55;;;;;;;;;;4181009;28;20053;-41
2023/01/02 04:30:00;;;;;;;1.10;0.80;;;;;;;;;;4181497;28;20056;-41
2023/01/02 04:32:10;;;;;;;1.08;0.80;;;;;;;;;;4185464;28;20098;-40
2023/01/02 04:34:14;;;;;;;0.85;0.60;;;;;;;;;;4197108;28;20131;-41
2023/01/02 04:36:16;;;;;;;0.60;0.60;;;;;;;;;;4180679;28;20045;-42
2023/01/02 04:38:17;;;;;;;0.50;0.50;;;;;;;;;;4181493;28;20049;-41
2023/01/02 04:40:21;;;;;;;0.65;0.40;;;;;;;;;;4185435;28;20090;-39
2023/01/02 04:42:22;;;;;;;1.35;0.80;;;;;;;;;;4197435;28;20082;-41
2023/01/02 04:44:23;;;;;;;1.33;0.60;;;;;;;;;;4198277;28;20056;-41
2023/01/02 04:46:26;;;;;;;0.93;0.70;;;;;;;;;;4179962;28;20120;-41
2023/01/02 04:48:27;;;;;;;1.52;0.47;;;;;;;;;;4185196;28;20057;-41
2023/01/02 04:50:28;;;;;;;0.95;0.63;;;;;;;;;;4180416;28;20056;-41
2023/01/02 04:52:30;;;;;;;1.08;0.60;;;;;;;;;;4170754;28;20084;-41
2023/01/02 04:54:31;;;;;;;0.70;0.57;;;;;;;;;;4181016;28;20500;-40
2023/01/02 04:56:33;;;;;;;0.50;0.50;;;;;;;;;;4194814;28;20048;-41
2023/01/02 04:58:34;;;;;;;0.77;0.65;;;;;;;;;;4169703;28;20053;-41
2023/01/02 05:00:35;;;;;;;1.35;0.80;;;;;;;;;;4198214;28;20053;-43
2023/01/02 05:02:39;;;;;;;0.80;0.55;;;;;;;;;;4180301;28;20048;-41
2023/01/02 05:04:40;;;;;;;0.70;0.55;;;;;;;;;;4190686;28;20094;-41
2023/01/02 05:06:41;;;;;;;0.70;0.70;;;;;;;;;;4168688;28;20049;-41
2023/01/02 05:08:43;;;;;;;0.73;0.68;;;;;;;;;;4198001;28;20056;-43
2023/01/02 05:10:44;;;;;;;0.85;0.50;;;;;;;;;;4197286;28;20044;-41
2023/01/02 05:12:46;;;;;;;1.08;0.45;;;;;;;;;;4179810;28;20052;-43
2023/01/02 05:14:47;;;;;;;0.70;0.40;;;;;;;;;;4197756;28;20056;-41
2023/01/02 05:16:49;;;;;;;0.65;0.50;;;;;;;;;;4198082;28;20052;-43
2023/01/02 05:18:51;;;;;;;0.63;0.40;;;;;;;;;;4197860;28;20484;-41
2023/01/02 05:20:52;;;;;;;0.75;0.50;;;;;;;;;;4197947;28;20136;-42
2023/01/02 05:25:14;;;;;;;0.98;0.43;;;;;;;;;;4197142;28;20557;-43
2023/01/02 05:27:15;;;;;;;0.30;0.30;;;;;;;;;;4167761;28;20053;-40
2023/01/02 05:29:16;;;;;;;0.38;0.38;;;;;;;;;;4194175;28;20408;-43
2023/01/02 05:31:18;;;;;;;0.30;0.30;;;;;;;;;;4181041;28;20057;-42
2023/01/02 05:33:19;;;;;;;0.28;0.28;;;;;;;;;;4189141;28;20068;-41
2023/01/02 05:35:20;;;;;;;0.30;0.20;;;;;;;;;;4197318;28;20385;-41
2023/01/02 05:37:22;;;;;;;0.57;0.38;;;;;;;;;;4196645;28;20052;-43
2023/01/02 05:39:23;;;;;;;0.95;0.40;;;;;;;;;;4183996;28;20048;-43
2023/01/02 05:41:24;;;;;;;0.40;0.40;;;;;;;;;;4190941;28;20053;-41
2023/01/02 05:43:26;;;;;;;0.43;0.28;;;;;;;;;;4173046;28;20053;-41
2023/01/02 05:45:27;;;;;;;0.20;0.20;;;;;;;;;;4197135;28;20057;-41
2023/01/02 05:47:28;;;;;;;0.38;0.25;;;;;;;;;;4196983;28;20416;-40
2023/01/02 05:49:30;;;;;;;0.30;0.30;;;;;;;;;;4197441;28;20061;-41
2023/01/02 05:51:32;;;;;;;0.50;0.30;;;;;;;;;;4197487;28;20053;-41
2023/01/02 05:53:33;;;;;;;0.20;0.20;;;;;;;;;;4185370;28;20056;-40
2023/01/02 05:55:34;;;;;;;0.30;0.20;;;;;;;;;;4195141;28;20052;-43
2023/01/02 05:57:36;;;;;;;0.43;0.30;;;;;;;;;;4196934;28;20079;-42
2023/01/02 05:59:37;;;;;;;0.85;0.30;;;;;;;;;;4197044;28;20056;-41
2023/01/02 06:01:38;;;;;;;0.30;0.20;;;;;;;;;;4193580;28;20079;-41
2023/01/02 06:03:43;;;;;;;0.20;0.20;;;;;;;;;;4193828;28;20495;-40
2023/01/02 06:05:44;;;;;;;0.70;0.20;;;;;;;;;;4178367;28;20079;-43
2023/01/02 06:07:46;;;;;;;0.55;0.22;;;;;;;;;;4168376;28;20106;-39
2023/01/02 06:09:47;;;;;;;0.65;0.28;;;;;;;;;;4194315;28;20052;-41
2023/01/02 06:11:48;;;;;;;0.40;0.20;;;;;;;;;;4194205;28;20057;-39
2023/01/02 06:13:50;;;;;;;0.30;0.20;;;;;;;;;;4194587;28;20440;-40
2023/01/02 06:15:53;;;;;;;0.65;0.30;;;;;;;;;;4194658;28;20059;-41
2023/01/02 06:17:54;;;;;;;0.88;0.20;;;;;;;;;;4195011;28;20102;-41
2023/01/02 06:19:55;;;;;;;0.30;0.20;;;;;;;;;;4194726;28;20064;-43
2023/01/02 06:21:56;;;;;;;0.20;0.20;;;;;;;;;;4160553;28;20054;-41
2023/01/02 06:23:58;;;;;;;0.57;0.20;;;;;;;;;;4177689;28;20056;-40
2023/01/02 06:26:24;;;;;;;0.20;0.10;;;;;;;;;;4186465;28;20060;-40
2023/01/02 06:28:25;;;;;;;0.13;0.10;;;;;;;;;;4192427;28;20067;-40
2023/01/02 06:30:27;;;;;;;0.45;0.30;;;;;;;;;;4160264;28;20096;-41
2023/01/02 06:32:28;;;;;;;0.20;0.20;;;;;;;;;;4186038;28;20056;-41
2023/01/02 06:34:29;;;;;;;0.20;0.20;;;;;;;;;;4176733;28;20118;-42
2023/01/02 06:36:32;;;;;;;0.63;0.20;;;;;;;;;;4191455;28;20051;-41
2023/01/02 06:38:34;;;;;;;0.45;0.20;;;;;;;;;;4193638;28;20056;-40
2023/01/02 06:40:35;;;;;;;0.40;0.20;;;;;;;;;;4168657;28;20076;-41
2023/01/02 06:42:37;;;;;;;0.47;0.20;;;;;;;;;;4188357;28;20056;-40
2023/01/02 06:44:38;;;;;;;0.30;0.20;;;;;;;;;;4180579;28;20057;-36
2023/01/02 06:46:39;;;;;;;0.15;0.10;;;;;;;;;;4180830;28;20080;-41
2023/01/02 06:48:41;;;;;;;0.40;0.20;;;;;;;;;;4193933;28;20495;-41
2023/01/02 06:50:43;;;;;;;0.70;0.20;;;;;;;;;;4194170;28;20510;-40
2023/01/02 06:52:44;;;;;;;0.47;0.28;;;;;;;;;;4176593;28;20470;-41
2023/01/02 06:54:45;;;;;;;3.33;0.38;;;;;;;;;;4193504;28;20102;-41
2023/01/02 06:56:47;;;;;;;1.85;0.20;;;;;;;;;;4188801;28;20496;-44
2023/01/02 06:58:48;;;;;;;1.10;0.30;;;;;;;;;;4178086;28;20114;-41
2023/01/02 07:00:50;;;;;;;2.22;0.25;;;;;;;;;;4177313;28;20061;-42
2023/01/02 07:02:51;;;;;;;2.35;0.50;;;;;;;;;;4177288;28;20060;-42
2023/01/02 07:04:52;;;;;;;4.93;0.45;;;;;;;;;;4190428;28;20056;-41
2023/01/02 07:06:54;;;;;;;2.88;0.30;;;;;;;;;;4194081;28;20458;-41
2023/01/02 07:08:55;;;;;;;4.03;0.60;;;;;;;;;;4182935;28;20590;-39
2023/01/02 07:11:14;;;;;;;4.57;0.30;;;;;;;;;;4178499;28;20060;-40
2023/01/02 07:13:15;;;;;;;5.63;0.70;;;;;;;;;;4192341;28;20074;-40
2023/01/02 07:15:16;;;;;;;2.53;0.47;;;;;;;;;;4174652;28;20056;-41
2023/01/02 07:17:18;;;;;;;2.03;0.30;;;;;;;;;;4181882;28;20048;-40
2023/01/02 07:19:20;;;;;;;1.88;0.30;;;;;;;;;;4190247;28;20118;-41
2023/01/02 07:21:21;;;;;;;1.58;0.40;;;;;;;;;;4194382;28;20118;-41
2023/01/02 07:23:22;;;;;;;3.72;0.40;;;;;;;;;;4187684;28;20107;-40
2023/01/02 07:25:23;;;;;;;3.08;0.40;;;;;;;;;;4192578;28;20117;-42
2023/01/02 07:27:25;;;;;;;4.72;0.50;;;;;;;;;;4191725;28;20102;-41
2023/01/02 07:29:26;;;;;;;3.72;0.43;;;;;;;;;;4194054;28;20053;-41
2023/01/02 07:31:28;;;;;;;2.33;0.40;;;;;;;;;;4192916;28;20053;-41
2023/01/02 07:33:30;;;;;;;3.15;0.52;;;;;;;;;;4192189;28;20052;-40
2023/01/02 07:35:31;;;;;;;4.72;0.60;;;;;;;;;;4187529;28;20113;-41
2023/01/02 07:37:33;;;;;;;2.15;0.50;;;;;;;;;;4190613;28;20048;-41
2023/01/02 07:39:34;;;;;;;7.05;0.80;;;;;;;;;;4188840;28;20044;-41
2023/01/02 07:41:36;;;;;;;2.97;0.40;;;;;;;;;;4194345;28;20064;-40
2023/01/02 07:43:48;;;;;;;7.15;0.80;;;;;;;;;;4170736;28;20068;-40
2023/01/02 07:45:49;;;;;;;9.90;0.60;;;;;;;;;;4189870;28;20275;-41
2023/01/02 07:47:51;;;;;;;3.63;0.63;;;;;;;;;;4186499;28;20056;-41
2023/01/02 07:49:52;;;;;;;8.63;0.80;;;;;;;;;;4191483;28;20060;-40
2023/01/02 07:51:53;;;;;;;3.75;0.60;;;;;;;;;;4189246;28;20056;-41
2023/01/02 07:53:55;;;;;;;7.03;0.50;;;;;;;;;;4178197;28;20056;-40
2023/01/02 07:55:57;;;;;;;6.35;0.52;;;;;;;;;;4189589;28;20064;-41
2023/01/02 07:57:59;;;;;;;7.55;0.73;;;;;;;;;;4194205;28;20106;-41
2023/01/02 08:00:00;;;;;;;2.65;0.63;;;;;;;;;;4186049;28;20145;-40
2023/01/02 08:02:02;;;;;;;7.55;0.45;;;;;;;;;;4174021;28;20049;-41
2023/01/02 08:04:03;;;;;;;2.58;0.40;;;;;;;;;;4183931;28;20061;-40
2023/01/02 08:06:06;;;;;;;5.70;0.50;;;;;;;;;;4192829;28;20089;-40
2023/01/02 08:08:08;;;;;;;8.77;0.77;;;;;;;;;;4151648;28;20111;-41
2023/01/02 08:10:10;;;;;;;2.15;0.60;;;;;;;;;;4193874;28;20110;-41
2023/01/02 08:12:12;;;;;;;4.53;0.60;;;;;;;;;;4191777;28;20060;-41
2023/01/02 08:14:13;;;;;;;2.97;0.75;;;;;;;;;;4177673;28;20075;-40
2023/01/02 08:16:17;;;;;;;2.22;0.30;;;;;;;;;;4188741;28;20094;-41
2023/01/02 08:18:18;;;;;;;6.00;0.60;;;;;;;;;;4188078;28;20114;-39
2023/01/02 08:20:20;;;;;;;2.30;0.50;;;;;;;;;;4177014;28;20057;-41
2023/01/02 08:22:21;;;;;;;1.40;0.40;;;;;;;;;;4193799;28;20189;-41
2023/01/02 08:24:23;;;;;;;2.28;0.45;;;;;;;;;;4187233;28;20052;-41
2023/01/02 08:26:24;;;;;;;1.73;0.30;;;;;;;;;;4196168;28;20044;-40
2023/01/02 08:28:26;;;;;;;1.10;0.50;;;;;;;;;;4195206;28;20064;-40
2023/01/02 08:30:28;;;;;;;1.58;0.30;;;;;;;;;;4191359;28;20223;-39
2023/01/02 08:32:29;;;;;;;1.02;0.40;;;;;;;;;;4189524;28;20102;-40
2023/01/02 08:34:30;;;;;;;3.13;0.52;;;;;;;;;;4172721;28;20522;-41
2023/01/02 08:36:31;;;;;;;2.10;0.40;;;;;;;;;;4187285;28;20044;-41
2023/01/02 08:38:33;;;;;;;1.30;0.60;;;;;;;;;;4185989;28;20049;-41
2023/01/02 08:40:34;;;;;;;0.75;0.20;;;;;;;;;;4189851;28;20474;-41
2023/01/02 08:42:36;;;;;;;2.28;0.30;;;;;;;;;;4191815;28;20138;-41
2023/01/02 08:44:37;;;;;;;3.60;0.30;;;;;;;;;;4166166;28;20056;-40
2023/01/02 08:46:39;;;;;;;0.82;0.20;;;;;;;;;;4186379;28;20400;-41
2023/01/02 08:48:40;;;;;;;3.92;0.68;;;;;;;;;;4191538;28;20057;-41
2023/01/02 08:50:42;;;;;;;0.35;0.20;;;;;;;;;;4191946;28;20060;-41
2023/01/02 08:52:43;;;;;;;1.00;0.20;;;;;;;;;;4189143;28;20455;-41
2023/01/02 08:54:45;;;;;;;1.17;0.20;;;;;;;;;;4179806;28;20060;-40
2023/01/02 08:56:47;;;;;;;1.48;0.40;;;;;;;;;;4192095;28;20060;-42
2023/01/02 08:58:56;;;;;;;2.30;0.30;;;;;;;;;;4191941;28;20097;-41
2023/01/02 09:00:58;;;;;;;1.25;0.35;;;;;;;;;;4188154;28;20117;-40
2023/01/02 09:02:59;;;;;;;1.15;0.30;;;;;;;;;;4181512;28;20197;-41
2023/01/02 09:05:01;;;;;;;1.27;0.30;;;;;;;;;;4182850;28;20102;-42
2023/01/02 09:07:02;;;;;;;2.08;0.30;;;;;;;;;;4192267;28;20114;-40
2023/01/02 09:09:04;;;;;;;0.93;0.22;;;;;;;;;;4157028;28;20475;-44
2023/01/02 09:11:13;;;;;;;0.70;0.45;;;;;;;;;;4192884;28;20126;-41
2023/01/02 09:13:14;;;;;;;0.85;0.10;;;;;;;;;;4193688;28;20052;-41
2023/01/02 09:15:16;;;;;;;2.65;0.50;;;;;;;;;;4191937;28;20060;-41
2023/01/02 09:17:17;;;;;;;2.70;0.38;;;;;;;;;;4192998;28;20049;-41
2023/01/02 09:19:19;;;;;;;0.30;0.20;;;;;;;;;;4187864;28;20053;-44
2023/01/02 09:21:20;;;;;;;2.67;0.50;;;;;;;;;;4166158;28;20053;-40
2023/01/02 09:23:21;;;;;;;2.75;0.30;;;;;;;;;;4187146;28;20052;-41
2023/01/02 09:25:23;;;;;;;2.28;0.60;;;;;;;;;;4179105;28;20061;-40
2023/01/02 09:27:24;;;;;;;6.32;0.55;;;;;;;;;;4184684;28;20103;-42
2023/01/02 09:29:25;;;;;;;1.75;0.30;;;;;;;;;;4185027;28;20106;-42
2023/01/02 09:31:26;;;;;;;1.13;0.20;;;;;;;;;;4189687;28;20041;-41
2023/01/02 09:33:28;;;;;;;0.68;0.40;;;;;;;;;;4185947;28;20125;-39
2023/01/02 09:35:30;;;;;;;0.73;0.30;;;;;;;;;;4192412;28;20468;-41
2023/01/02 09:37:31;;;;;;;3.20;0.40;;;;;;;;;;4189186;28;20059;-42
2023/01/02 09:39:32;;;;;;;2.22;0.30;;;;;;;;;;4181455;28;20416;-41
2023/01/02 09:41:53;;;;;;;1.10;0.38;;;;;;;;;;4174235;28;20118;-41
2023/01/02 09:44:16;;;;;;;4.80;0.43;;;;;;;;;;4184861;28;20119;-42
2023/01/02 09:46:35;;;;;;;3.67;0.40;;;;;;;;;;4186524;28;20636;-41
2023/01/02 09:48:37;;;;;;;2.67;0.40;;;;;;;;;;4182691;28;20048;-42
2023/01/02 09:50:38;;;;;;;1.52;0.55;;;;;;;;;;4182197;28;20142;-41
2023/01/02 09:52:42;;;;;;;1.27;0.50;;;;;;;;;;4173660;28;20068;-41
2023/01/02 09:54:43;;;;;;;1.77;0.50;;;;;;;;;;4188904;28;20052;-43
2023/01/02 09:56:47;;;;;;;4.00;0.50;;;;;;;;;;4189563;28;20052;-41
2023/01/02 09:59:04;;;;;;;1.20;0.40;;;;;;;;;;4173938;28;20052;-41
2023/01/02 10:01:10;;;;;;;1.55;0.32;;;;;;;;;;4180931;28;20466;-42
2023/01/02 10:03:39;;;;;;;0.60;0.40;;;;;;;;;;4185593;28;20052;-41
2023/01/02 10:05:55;;;;;;;0.65;0.30;;;;;;;;;;4184761;28;20057;-41
2023/01/02 10:08:41;;;;;;;2.20;0.70;;;;;;;;;;4181380;28;20099;-42
2023/01/02 10:10:50;;;;;;;0.68;0.32;;;;;;;;;;4160451;28;20044;-42
2023/01/02 10:12:57;;;;;;;2.15;0.55;;;;;;;;;;4187830;28;20508;-40
2023/01/02 10:15:02;;;;;;;0.43;0.30;;;;;;;;;;4185982;28;20504;-41
2023/01/02 10:17:05;;;;;;;0.40;0.40;;;;;;;;;;4180185;28;20049;-38
2023/01/02 10:19:22;;;;;;;0.22;0.20;;;;;;;;;;4169106;28;20459;-41
2023/01/02 10:21:28;;;;;;;1.05;0.30;;;;;;;;;;4168592;28;20091;-41
2023/01/02 10:23:36;;;;;;;1.20;0.38;;;;;;;;;;4187671;28;20090;-40
2023/01/02 10:25:59;;;;;;;0.63;0.28;;;;;;;;;;4176721;28;20056;-42
2023/01/02 10:28:31;;;;;;;0.40;0.28;;;;;;;;;;4186152;28;20516;-41
2023/01/02 10:30:37;;;;;;;0.60;0.50;;;;;;;;;;4172076;28;20057;-41
2023/01/02 10:32:44;;;;;;;1.65;0.38;;;;;;;;;;4184121;28;20306;-41
2023/01/02 10:35:08;;;;;;;1.38;0.32;;;;;;;;;;4186204;28;20078;-41
2023/01/02 10:37:14;;;;;;;0.50;0.40;;;;;;;;;;4165273;28;20049;-41
2023/01/02 10:39:20;;;;;;;1.15;0.30;;;;;;;;;;4182673;28;20421;-40
2023/01/02 10:41:23;;;;;;;1.02;0.43;;;;;;;;;;4170847;28;20114;-41
2023/01/02 10:43:28;;;;;;;0.88;0.60;;;;;;;;;;4155199;28;20057;-40
2023/01/02 10:45:29;;;;;;;0.75;0.28;;;;;;;;;;4184598;28;20512;-41
2023/01/02 10:47:37;;;;;;;0.55;0.45;;;;;;;;;;4186683;28;20415;-41
2023/01/02 10:49:39;;;;;;;0.90;0.45;;;;;;;;;;4183793;28;20052;-40
2023/01/02 10:51:57;;;;;;;0.90;0.50;;;;;;;;;;4169242;28;20057;-43
2023/01/02 10:54:03;;;;;;;0.65;0.38;;;;;;;;;;4165529;28;20052;-40
2023/01/02 10:56:17;;;;;;;0.68;0.30;;;;;;;;;;4186516;28;20110;-40
2023/01/02 10:58:27;;;;;;;1.00;0.50;;;;;;;;;;4172161;28;20378;-41
2023/01/02 11:00:30;;;;;;;1.85;0.30;;;;;;;;;;4184952;28;20064;-41
2023/01/02 11:02:39;;;;;;;1.08;0.52;;;;;;;;;;4168395;28;20057;-40
2023/01/02 11:04:41;;;;;;;1.95;0.40;;;;;;;;;;4181218;28;20158;-40
2023/01/02 11:07:00;;;;;;;0.22;0.22;;;;;;;;;;4188321;28;20073;-38
2023/01/02 11:09:32;;;;;;;0.80;0.40;;;;;;;;;;4182810;28;20048;-42
2023/01/02 11:11:33;;;;;;;0.75;0.50;;;;;;;;;;4151256;28;20064;-41
2023/01/02 11:13:44;;;;;;;0.82;0.40;;;;;;;;;;4183241;28;20071;-39
2023/01/02 11:15:50;;;;;;;1.00;0.40;;;;;;;;;;4184297;28;20055;-44
2023/01/02 11:17:51;;;;;;;1.30;0.40;;;;;;;;;;4186851;28;20068;-41
2023/01/02 11:19:55;;;;;;;0.80;0.40;;;;;;;;;;4184999;28;20056;-40
2023/01/02 11:21:57;;;;;;;0.40;0.30;;;;;;;;;;4170514;28;20397;-42
2023/01/02 11:24:03;;;;;;;1.08;0.57;;;;;;;;;;4162467;28;20060;-41
2023/01/02 11:26:21;;;;;;;0.80;0.40;;;;;;;;;;4159887;28;20053;-42
2023/01/02 11:28:25;;;;;;;0.93;0.43;;;;;;;;;;4185480;28;20059;-40
2023/01/02 11:30:32;;;;;;;1.08;0.43;;;;;;;;;;4183950;28;20637;-41
2023/01/02 11:32:39;;;;;;;0.93;0.47;;;;;;;;;;4180058;28;20564;-42
2023/01/02 11:34:54;;;;;;;2.42;0.52;;;;;;;;;;4167199;28;20083;-41
2023/01/02 11:37:11;;;;;;;0.90;0.35;;;;;;;;;;4183854;28;20389;-41
2023/01/02 11:39:21;;;;;;;1.38;0.47;;;;;;;;;;4175116;28;21296;-41
2023/01/02 11:43:59;;;;;;;0.85;0.50;;;;;;;;;;4165964;28;20053;-42
2023/01/02 11:46:05;;;;;;;0.68;0.40;;;;;;;;;;4168603;28;20578;-40
2023/01/02 11:48:13;;;;;;;0.45;0.40;;;;;;;;;;4182762;28;20056;-38
2023/01/02 11:50:27;;;;;;;0.50;0.30;;;;;;;;;;4165346;28;20484;-41
2023/01/02 11:52:51;;;;;;;0.50;0.32;;;;;;;;;;4182712;28;20048;-41
2023/01/02 11:55:17;;;;;;;0.57;0.32;;;;;;;;;;4169421;28;20052;-41
2023/01/02 11:57:29;;;;;;;0.65;0.40;;;;;;;;;;4169880;28;20079;-41
2023/01/02 11:59:43;;;;;;;0.40;0.40;;;;;;;;;;4156429;28;20143;-41
2023/01/02 12:01:50;;;;;;;0.45;0.40;;;;;;;;;;4139786;28;20505;-42
2023/01/02 12:03:52;;;;;;;1.15;0.40;;;;;;;;;;4184476;28;20114;-38
2023/01/02 12:06:07;;;;;;;0.75;0.40;;;;;;;;;;4175781;28;20052;-41
2023/01/02 12:08:41;;;;;;;0.60;0.43;;;;;;;;;;4164214;28;20091;-41
2023/01/02 12:10:48;;;;;;;0.32;0.30;;;;;;;;;;4170551;28;20056;-42
2023/01/02 12:13:18;;;;;;;0.88;0.57;;;;;;;;;;4168518;28;20061;-40
2023/01/02 12:15:31;;;;;;;0.40;0.20;;;;;;;;;;4184898;28;20105;-39
2023/01/02 12:17:56;;;;;;;0.55;0.40;;;;;;;;;;4183868;28;20053;-39
2023/01/02 12:20:26;;;;;;;0.52;0.32;;;;;;;;;;4186436;28;20056;-40
2023/01/02 12:22:51;;;;;;;0.52;0.20;;;;;;;;;;4183312;28;20496;-39
2023/01/02 12:25:00;;;;;;;0.60;0.30;;;;;;;;;;4182879;28;20122;-39
2023/01/02 12:27:16;;;;;;;0.75;0.60;;;;;;;;;;4185490;28;20053;-40
2023/01/02 12:29:39;;;;;;;0.60;0.40;;;;;;;;;;4166213;28;20048;-42
2023/01/02 12:32:01;;;;;;;0.50;0.30;;;;;;;;;;4186702;28;20574;-43
2023/01/02 12:34:30;;;;;;;1.38;0.40;;;;;;;;;;4166884;28;20080;-42
2023/01/02 12:36:50;;;;;;;0.50;0.20;;;;;;;;;;4178753;28;20060;-42
2023/01/02 12:39:15;;;;;;;0.40;0.38;;;;;;;;;;4165948;28;20556;-39